Accueil
METAR-TAF:

METAR-TAF

Aéroports :

Damas, Syrie

Aéroport international de Damas

latitude: 33-25N, longitude: 036-31E, altitude: 608 m

Observation

Le bulletin a été fait il y a 48 minutes, à 00:00 UTC
Vent 3 kt de nord-ouest
Température 9°C
Humidité 71%
Pression 1012 hPa
Visibilité 10 km ou plus
Quelques nuages à une hauteur de 3000 ft

METAR: OSDI 220000Z 32003KT 9999 FEW030 09/04 Q1012

Heure: 02:48 (00:48 UTC)

Prévision

Prévision valable du 22 à 00 UTC au 23 à 06 UTC
Vent 3 kt de direction variable
Visibilité 10 km ou plus
Quelques nuages à une hauteur de 3000 ft
Temporairement
du 22 à 09 UTC au 22 à 18 UTC
Vent 10 kt de sud-ouest
Visibilité 10 km ou plus
Quelques nuages à une hauteur de 3000 ft
Nuages épars à une hauteur de 10000 ft

TAF: OSDI 2200/2306 VRB03KT 9999 FEW030 TEMPO 2209/2218 22010KT 9999 FEW030 SCT100

Observations et prévisions météorologiques de plus de 4000 aéroports (messages METAR et TAF).

Les stations disponibles sont représentées par des disques jaunes et rouges sur la carte.

Passer la souris dessus pour voir le nom de la station.

Cliquer dessus pour voir les observations et prévisions météorologiques.

Pour changer de carte: cliquez sur les boutons verts avec une croix noire pour zoomer, sur le bouton vert avec un tiret pour effectuer un zoom arrière, ou sur les flèches vertes pour les cartes adjacentes.


METAR-TAF: